Time;durP1;ratioP1;P1;durP2;ratioP2;P2;SDS_P1;SDS_P2;PMS_P1;PMS_P2;Temp;Humidity;BMP_temperature;BMP_pressure;BME280_temperature;BME280_humidity;BME280_pressure;Samples;Min_cycle;Max_cycle;Signal;HPM_P1;HPM_P2
2022/12/28 00:01:07;;;;;;;1.95;0.50;;;;;;;;;;5092138;28;20458;-62
2022/12/28 00:03:33;;;;;;;2.03;0.47;;;;;;;;;;5092384;28;20097;-63
2022/12/28 00:06:00;;;;;;;0.90;0.30;;;;;;;;;;5092239;28;20052;-62
2022/12/28 00:08:26;;;;;;;0.55;0.10;;;;;;;;;;5092476;28;20044;-63
2022/12/28 00:10:58;;;;;;;2.40;0.30;;;;;;;;;;5092378;28;20048;-62
2022/12/28 00:13:34;;;;;;;1.90;0.20;;;;;;;;;;5092305;28;20090;-62
2022/12/28 00:16:07;;;;;;;1.52;0.40;;;;;;;;;;5092093;28;20059;-63
2022/12/28 00:18:34;;;;;;;1.05;0.20;;;;;;;;;;5078083;28;20044;-63
2022/12/28 00:21:00;;;;;;;1.60;0.30;;;;;;;;;;5091871;28;20058;-63
2022/12/28 00:23:27;;;;;;;0.63;0.20;;;;;;;;;;5091423;28;20127;-63
2022/12/28 00:25:53;;;;;;;1.27;0.30;;;;;;;;;;5091879;28;20522;-63
2022/12/28 00:28:20;;;;;;;0.88;0.30;;;;;;;;;;5092075;28;20048;-63
2022/12/28 00:30:46;;;;;;;2.28;0.43;;;;;;;;;;5092199;28;20411;-63
2022/12/28 00:33:13;;;;;;;0.57;0.20;;;;;;;;;;5091855;28;20044;-63
2022/12/28 00:35:39;;;;;;;0.75;0.13;;;;;;;;;;5091788;28;20487;-63
2022/12/28 00:38:06;;;;;;;0.90;0.30;;;;;;;;;;5092040;28;20052;-63
2022/12/28 00:40:32;;;;;;;1.50;0.30;;;;;;;;;;5091534;28;20052;-63
2022/12/28 00:42:59;;;;;;;2.42;0.32;;;;;;;;;;5091759;28;20562;-63
2022/12/28 00:45:25;;;;;;;0.85;0.30;;;;;;;;;;5090573;28;20067;-63
2022/12/28 00:47:51;;;;;;;1.77;0.40;;;;;;;;;;5092001;28;20407;-63
2022/12/28 00:50:18;;;;;;;4.13;0.28;;;;;;;;;;5091575;28;20084;-63
2022/12/28 00:52:44;;;;;;;3.17;0.50;;;;;;;;;;5091497;28;20044;-63
2022/12/28 00:55:10;;;;;;;3.95;0.30;;;;;;;;;;5091393;28;20048;-62
2022/12/28 00:57:39;;;;;;;1.35;0.40;;;;;;;;;;5091825;28;20044;-63
2022/12/28 01:00:06;;;;;;;3.00;0.50;;;;;;;;;;5091601;28;20048;-62
2022/12/28 01:02:32;;;;;;;2.78;0.60;;;;;;;;;;5091450;28;20091;-63
2022/12/28 01:04:59;;;;;;;1.77;0.82;;;;;;;;;;5091380;28;20495;-63
2022/12/28 01:07:25;;;;;;;2.50;0.40;;;;;;;;;;5091422;28;20406;-63
2022/12/28 01:09:51;;;;;;;2.10;0.50;;;;;;;;;;5091421;28;20502;-63
2022/12/28 01:12:18;;;;;;;3.00;1.02;;;;;;;;;;5091756;28;20074;-63
2022/12/28 01:14:44;;;;;;;2.08;1.10;;;;;;;;;;5091395;28;20052;-63
2022/12/28 01:17:10;;;;;;;2.75;0.70;;;;;;;;;;5091369;28;20511;-63
2022/12/28 01:19:37;;;;;;;2.17;0.70;;;;;;;;;;5091357;28;20048;-63
2022/12/28 01:22:03;;;;;;;2.80;0.90;;;;;;;;;;5091208;28;20510;-62
2022/12/28 01:24:29;;;;;;;2.25;0.60;;;;;;;;;;5091626;28;20048;-63
2022/12/28 01:26:56;;;;;;;2.60;0.30;;;;;;;;;;5090306;28;20096;-62
2022/12/28 01:29:22;;;;;;;1.63;0.30;;;;;;;;;;5091217;28;20411;-62
2022/12/28 01:31:48;;;;;;;0.75;0.38;;;;;;;;;;5091469;28;20054;-62
2022/12/28 01:34:15;;;;;;;0.20;0.20;;;;;;;;;;5091170;28;20070;-62
2022/12/28 01:36:41;;;;;;;1.38;0.25;;;;;;;;;;5094647;28;20048;-63
2022/12/28 01:39:09;;;;;;;3.53;0.15;;;;;;;;;;5095298;28;20046;-63
2022/12/28 01:41:37;;;;;;;1.13;0.20;;;;;;;;;;5095148;28;20411;-63
2022/12/28 01:44:03;;;;;;;2.67;0.30;;;;;;;;;;5095048;28;20411;-63
2022/12/28 01:46:35;;;;;;;1.90;0.40;;;;;;;;;;5094922;28;20076;-62
2022/12/28 01:49:04;;;;;;;1.75;0.40;;;;;;;;;;5095066;28;20086;-63
2022/12/28 01:51:34;;;;;;;2.13;0.30;;;;;;;;;;5095014;28;20062;-62
2022/12/28 01:54:01;;;;;;;1.85;0.20;;;;;;;;;;5094844;28;20044;-62
2022/12/28 01:56:28;;;;;;;1.65;0.30;;;;;;;;;;5095016;28;20493;-62
2022/12/28 01:58:55;;;;;;;1.27;0.40;;;;;;;;;;5094915;28;20130;-63
2022/12/28 02:01:21;;;;;;;0.70;0.30;;;;;;;;;;5094598;28;20040;-63
2022/12/28 02:03:48;;;;;;;1.67;0.30;;;;;;;;;;5094736;28;20048;-63
2022/12/28 02:06:15;;;;;;;1.65;0.28;;;;;;;;;;5094318;28;20059;-63
2022/12/28 02:09:00;;;;;;;1.73;0.70;;;;;;;;;;5094451;28;20044;-62
2022/12/28 02:11:26;;;;;;;1.40;0.22;;;;;;;;;;5094524;28;20050;-63
2022/12/28 02:13:53;;;;;;;1.85;0.45;;;;;;;;;;5094324;28;20048;-63
2022/12/28 02:16:19;;;;;;;1.15;0.57;;;;;;;;;;5094478;28;20079;-63
2022/12/28 02:18:46;;;;;;;3.47;0.93;;;;;;;;;;5094215;28;20048;-63
2022/12/28 02:21:25;;;;;;;2.65;0.50;;;;;;;;;;5094183;28;20101;-63
2022/12/28 02:24:06;;;;;;;1.42;0.70;;;;;;;;;;5094296;28;20127;-63
2022/12/28 02:26:46;;;;;;;1.45;0.57;;;;;;;;;;5094307;28;20054;-63
2022/12/28 02:29:12;;;;;;;1.77;0.80;;;;;;;;;;5094339;28;20095;-62
2022/12/28 02:31:38;;;;;;;3.85;0.90;;;;;;;;;;5093885;28;20055;-62
2022/12/28 02:34:18;;;;;;;4.55;1.50;;;;;;;;;;5094039;28;20044;-62
2022/12/28 02:36:48;;;;;;;2.08;0.90;;;;;;;;;;5093967;28;20040;-63
2022/12/28 02:39:18;;;;;;;5.85;1.17;;;;;;;;;;5093876;28;20087;-63
2022/12/28 02:41:46;;;;;;;3.17;0.52;;;;;;;;;;5093968;28;20078;-63
2022/12/28 02:50:04;;;;;;;2.83;0.95;;;;;;;;;;5093798;28;20138;-63
2022/12/28 02:52:31;;;;;;;2.42;0.77;;;;;;;;;;5093615;28;20411;-63
2022/12/28 02:58:29;;;;;;;4.28;0.93;;;;;;;;;;5093422;28;20507;-63
2022/12/28 03:01:10;;;;;;;4.45;0.82;;;;;;;;;;5093395;28;20048;-63
2022/12/28 03:03:40;;;;;;;3.10;0.65;;;;;;;;;;5093659;28;20099;-62
2022/12/28 03:09:00;;;;;;;0.50;0.40;;;;;;;;;;5093601;28;20430;-63
2022/12/28 03:11:33;;;;;;;2.22;0.43;;;;;;;;;;5093339;28;20047;-63
2022/12/28 03:14:08;;;;;;;0.93;0.30;;;;;;;;;;5091950;28;20058;-62
2022/12/28 03:33:17;;;;;;;1.40;0.47;;;;;;;;;;5093046;28;20055;-62
2022/12/28 03:35:47;;;;;;;3.05;0.45;;;;;;;;;;5092907;28;20464;-62
2022/12/28 03:38:26;;;;;;;0.55;0.30;;;;;;;;;;5092728;28;20476;-63
2022/12/28 03:41:06;;;;;;;1.58;0.20;;;;;;;;;;5092715;28;20082;-63
2022/12/28 03:43:43;;;;;;;1.17;0.20;;;;;;;;;;5092608;28;20513;-63
2022/12/28 03:46:28;;;;;;;0.52;0.32;;;;;;;;;;5092886;28;20445;-62
2022/12/28 03:48:57;;;;;;;1.10;0.60;;;;;;;;;;5092429;28;20040;-62
2022/12/28 03:51:24;;;;;;;0.30;0.22;;;;;;;;;;5092572;28;20052;-62
2022/12/28 03:53:50;;;;;;;0.45;0.45;;;;;;;;;;5092431;28;20083;-62
2022/12/28 03:56:18;;;;;;;0.75;0.50;;;;;;;;;;5091323;28;20070;-62
2022/12/28 03:58:45;;;;;;;0.95;0.68;;;;;;;;;;5107132;28;20513;-62
2022/12/28 04:01:11;;;;;;;0.65;0.65;;;;;;;;;;5092528;28;20066;-62
2022/12/28 04:03:38;;;;;;;1.23;0.60;;;;;;;;;;5092190;28;20463;-62
2022/12/28 04:06:05;;;;;;;1.75;0.70;;;;;;;;;;5092113;28;20518;-62
2022/12/28 04:08:32;;;;;;;0.90;0.60;;;;;;;;;;5092201;28;20499;-62
2022/12/28 04:10:59;;;;;;;1.35;0.80;;;;;;;;;;5092092;28;20146;-62
2022/12/28 04:13:29;;;;;;;0.95;0.50;;;;;;;;;;5092143;28;20134;-62
2022/12/28 04:15:57;;;;;;;0.60;0.47;;;;;;;;;;5091959;28;20054;-62
2022/12/28 04:18:23;;;;;;;0.55;0.40;;;;;;;;;;5092111;28;20044;-62
2022/12/28 04:20:50;;;;;;;0.90;0.70;;;;;;;;;;5091970;28;20052;-62
2022/12/28 04:23:16;;;;;;;0.75;0.52;;;;;;;;;;5092459;28;20048;-62
2022/12/28 04:25:42;;;;;;;1.60;0.73;;;;;;;;;;5092190;28;20066;-62
2022/12/28 04:28:09;;;;;;;0.65;0.65;;;;;;;;;;5092092;28;20044;-62
2022/12/28 04:30:35;;;;;;;1.08;0.65;;;;;;;;;;5091848;28;20040;-62
2022/12/28 04:33:02;;;;;;;1.00;0.60;;;;;;;;;;5091766;28;20059;-62
2022/12/28 04:35:28;;;;;;;1.80;0.73;;;;;;;;;;5091817;28;20044;-62
2022/12/28 04:37:55;;;;;;;3.10;0.95;;;;;;;;;;5092020;28;20048;-62
2022/12/28 04:40:21;;;;;;;4.23;0.83;;;;;;;;;;5092006;28;20062;-62
2022/12/28 04:42:48;;;;;;;1.85;0.73;;;;;;;;;;5090736;28;20702;-62
2022/12/28 04:45:14;;;;;;;2.63;0.95;;;;;;;;;;5091809;28;20048;-63
2022/12/28 04:47:47;;;;;;;1.77;0.60;;;;;;;;;;5091902;28;20132;-62
2022/12/28 04:50:13;;;;;;;1.38;0.57;;;;;;;;;;5091699;28;20048;-62
2022/12/28 04:52:42;;;;;;;0.85;0.70;;;;;;;;;;5091638;28;20174;-62
2022/12/28 04:55:08;;;;;;;1.48;0.80;;;;;;;;;;5091728;28;20056;-62
2022/12/28 04:57:54;;;;;;;1.58;0.90;;;;;;;;;;5091873;28;20052;-62
2022/12/28 05:00:21;;;;;;;3.38;0.85;;;;;;;;;;5091550;28;20452;-62
2022/12/28 05:02:47;;;;;;;1.05;0.70;;;;;;;;;;5091556;28;20510;-62
2022/12/28 05:05:14;;;;;;;0.65;0.52;;;;;;;;;;5091393;28;20048;-62
2022/12/28 05:07:40;;;;;;;0.95;0.50;;;;;;;;;;5085253;28;20048;-62
2022/12/28 05:10:07;;;;;;;1.17;0.60;;;;;;;;;;5085485;28;20052;-63
2022/12/28 05:12:33;;;;;;;0.98;0.40;;;;;;;;;;5096035;28;20135;-62
2022/12/28 05:14:59;;;;;;;2.42;0.55;;;;;;;;;;5095525;28;20475;-62
2022/12/28 05:17:26;;;;;;;1.35;0.40;;;;;;;;;;5095300;28;20047;-62
2022/12/28 05:19:52;;;;;;;2.60;0.30;;;;;;;;;;5095425;28;20056;-62
2022/12/28 05:22:18;;;;;;;1.27;0.30;;;;;;;;;;5095233;28;20066;-62
2022/12/28 05:24:45;;;;;;;0.47;0.17;;;;;;;;;;5095172;28;20044;-62
2022/12/28 05:27:11;;;;;;;1.42;0.20;;;;;;;;;;5095226;28;20055;-62
2022/12/28 05:29:37;;;;;;;1.60;0.20;;;;;;;;;;5095192;28;20173;-62
2022/12/28 05:32:04;;;;;;;4.35;0.52;;;;;;;;;;5095426;28;20048;-62
2022/12/28 05:34:31;;;;;;;1.10;0.20;;;;;;;;;;5094972;28;20514;-62
2022/12/28 05:36:57;;;;;;;2.08;0.43;;;;;;;;;;5094948;28;20399;-61
2022/12/28 05:39:23;;;;;;;0.68;0.38;;;;;;;;;;5095279;28;20059;-61
2022/12/28 05:41:50;;;;;;;4.93;0.57;;;;;;;;;;5094870;28;20050;-62
2022/12/28 05:44:16;;;;;;;4.43;0.40;;;;;;;;;;5094921;28;20048;-61
2022/12/28 05:46:42;;;;;;;1.58;0.30;;;;;;;;;;5094805;28;20056;-62
2022/12/28 05:49:09;;;;;;;4.95;0.68;;;;;;;;;;5095097;28;20073;-62
2022/12/28 05:51:35;;;;;;;2.95;0.40;;;;;;;;;;5094850;28;20056;-62
2022/12/28 05:54:05;;;;;;;3.30;0.40;;;;;;;;;;5094747;28;20146;-62
2022/12/28 05:56:32;;;;;;;3.42;0.30;;;;;;;;;;5094571;28;20075;-62
2022/12/28 05:58:59;;;;;;;6.25;0.73;;;;;;;;;;5094888;28;20075;-62
2022/12/28 06:01:27;;;;;;;3.15;0.40;;;;;;;;;;5094490;28;20087;-62
2022/12/28 06:03:53;;;;;;;;;;;;;;;;;;5095234;28;20044;-62
2022/12/28 06:06:20;;;;;;;1.42;0.28;;;;;;;;;;5094805;28;19931;-62
2022/12/28 06:08:47;;;;;;;2.67;0.40;;;;;;;;;;5094544;28;20479;-62
2022/12/28 06:11:15;;;;;;;2.63;0.57;;;;;;;;;;5094452;28;20607;-62
2022/12/28 06:13:41;;;;;;;2.33;0.68;;;;;;;;;;5094642;28;20526;-63
2022/12/28 06:16:12;;;;;;;3.70;0.50;;;;;;;;;;5094582;28;20052;-62
2022/12/28 06:18:39;;;;;;;3.22;0.65;;;;;;;;;;5094691;28;20126;-62
2022/12/28 06:21:06;;;;;;;3.55;0.43;;;;;;;;;;5093482;28;20052;-62
2022/12/28 06:23:33;;;;;;;3.80;0.50;;;;;;;;;;5093839;28;20050;-62
2022/12/28 06:26:00;;;;;;;4.40;0.52;;;;;;;;;;5094171;28;20514;-62
2022/12/28 06:28:27;;;;;;;1.65;0.45;;;;;;;;;;5094030;28;20048;-62
2022/12/28 06:31:04;;;;;;;2.88;0.70;;;;;;;;;;5094079;28;20619;-62
2022/12/28 06:33:30;;;;;;;3.50;0.73;;;;;;;;;;5094218;28;20044;-62
2022/12/28 06:35:57;;;;;;;3.17;0.65;;;;;;;;;;5093866;28;20044;-62
2022/12/28 06:38:23;;;;;;;2.45;0.50;;;;;;;;;;5093914;28;20047;-62
2022/12/28 06:40:50;;;;;;;3.30;0.70;;;;;;;;;;5093800;28;20048;-63
2022/12/28 06:43:37;;;;;;;5.50;0.73;;;;;;;;;;5093635;28;20491;-62
2022/12/28 06:46:03;;;;;;;4.57;0.80;;;;;;;;;;5093788;28;20138;-62
2022/12/28 06:48:30;;;;;;;5.72;1.13;;;;;;;;;;5093947;28;20510;-62
2022/12/28 06:50:58;;;;;;;9.50;1.00;;;;;;;;;;5093660;28;20048;-62
2022/12/28 06:53:28;;;;;;;2.75;0.75;;;;;;;;;;5093472;28;20058;-63
2022/12/28 06:55:55;;;;;;;6.57;1.23;;;;;;;;;;5093518;28;20062;-63
2022/12/28 06:58:22;;;;;;;6.95;0.80;;;;;;;;;;5093752;28;20048;-62
2022/12/28 07:00:49;;;;;;;9.48;1.85;;;;;;;;;;5093492;28;20047;-62
2022/12/28 07:03:16;;;;;;;5.93;1.17;;;;;;;;;;5093558;28;20549;-62
2022/12/28 07:05:43;;;;;;;6.43;1.20;;;;;;;;;;5093271;28;20055;-63
2022/12/28 07:08:09;;;;;;;9.80;1.67;;;;;;;;;;5093547;28;20051;-62
2022/12/28 07:10:38;;;;;;;4.20;1.25;;;;;;;;;;5093485;28;20048;-62
2022/12/28 07:13:05;;;;;;;6.07;1.10;;;;;;;;;;5093214;28;20135;-62
2022/12/28 07:15:33;;;;;;;2.97;1.10;;;;;;;;;;5093148;28;20055;-62
2022/12/28 07:17:59;;;;;;;6.50;1.00;;;;;;;;;;5093128;28;20055;-62
2022/12/28 07:20:26;;;;;;;9.40;1.40;;;;;;;;;;5093296;28;20402;-62
2022/12/28 07:22:53;;;;;;;5.88;1.00;;;;;;;;;;5092760;28;20052;-62
2022/12/28 07:25:19;;;;;;;3.70;1.37;;;;;;;;;;5093025;28;20052;-62
2022/12/28 07:27:46;;;;;;;8.48;1.30;;;;;;;;;;5092827;28;20483;-62
2022/12/28 07:30:12;;;;;;;8.07;1.25;;;;;;;;;;5093189;28;20500;-62
2022/12/28 07:32:39;;;;;;;8.88;1.00;;;;;;;;;;5092949;28;20059;-62
2022/12/28 07:35:06;;;;;;;6.90;1.60;;;;;;;;;;5092608;28;20055;-62
2022/12/28 07:37:32;;;;;;;11.65;2.03;;;;;;;;;;5092727;28;20066;-62
2022/12/28 07:39:58;;;;;;;14.13;1.45;;;;;;;;;;5092603;28;20060;-62
2022/12/28 07:42:25;;;;;;;6.40;1.10;;;;;;;;;;5092575;28;20403;-63
2022/12/28 07:44:51;;;;;;;10.43;1.70;;;;;;;;;;5092647;28;20054;-62
2022/12/28 07:47:18;;;;;;;10.20;1.83;;;;;;;;;;5092521;28;20047;-62
2022/12/28 07:49:44;;;;;;;10.30;1.48;;;;;;;;;;5092991;28;20070;-62
2022/12/28 07:52:10;;;;;;;7.78;1.58;;;;;;;;;;5092716;28;20124;-62
2022/12/28 07:54:37;;;;;;;9.43;1.27;;;;;;;;;;5092468;28;20555;-62
2022/12/28 07:57:03;;;;;;;12.48;1.67;;;;;;;;;;5092426;28;20462;-62
2022/12/28 07:59:29;;;;;;;9.77;1.70;;;;;;;;;;5092321;28;20547;-62
2022/12/28 08:01:56;;;;;;;8.73;1.77;;;;;;;;;;5092261;28;20483;-63
2022/12/28 08:04:23;;;;;;;10.43;2.20;;;;;;;;;;5092442;28;20050;-62
2022/12/28 08:06:49;;;;;;;13.30;2.10;;;;;;;;;;5092409;28;20058;-62
2022/12/28 08:09:16;;;;;;;14.02;2.50;;;;;;;;;;5092277;28;20058;-62
2022/12/28 08:11:43;;;;;;;10.88;1.70;;;;;;;;;;5092434;28;20048;-62
2022/12/28 08:14:10;;;;;;;13.82;2.47;;;;;;;;;;5092389;28;20043;-62
2022/12/28 08:16:38;;;;;;;9.65;2.22;;;;;;;;;;5092014;28;20040;-62
2022/12/28 08:19:05;;;;;;;15.82;2.30;;;;;;;;;;5092316;28;20070;-63
2022/12/28 08:21:35;;;;;;;12.20;2.28;;;;;;;;;;5092008;28;20051;-63
2022/12/28 08:24:02;;;;;;;13.98;2.63;;;;;;;;;;5092029;28;20055;-63
2022/12/28 08:26:30;;;;;;;13.00;2.50;;;;;;;;;;5092247;28;20440;-62
2022/12/28 08:28:58;;;;;;;14.18;2.60;;;;;;;;;;5091953;28;20513;-62
2022/12/28 08:31:26;;;;;;;17.30;2.70;;;;;;;;;;5091794;28;20487;-62
2022/12/28 08:33:52;;;;;;;;;;;;;;;;;;5092595;28;20403;-63
2022/12/28 08:36:18;;;;;;;16.02;2.85;;;;;;;;;;5092272;28;19955;-63
2022/12/28 08:38:45;;;;;;;16.25;3.05;;;;;;;;;;5091799;28;20506;-63
2022/12/28 08:41:13;;;;;;;20.13;3.17;;;;;;;;;;5092045;28;20054;-63
2022/12/28 08:43:39;;;;;;;16.63;2.85;;;;;;;;;;5091676;28;20404;-63
2022/12/28 08:46:07;;;;;;;13.95;2.22;;;;;;;;;;5091162;28;20054;-63
2022/12/28 08:48:34;;;;;;;18.00;2.70;;;;;;;;;;5091864;28;20048;-62
2022/12/28 08:51:02;;;;;;;15.32;2.60;;;;;;;;;;5091802;28;20051;-63
2022/12/28 08:53:28;;;;;;;;;;;;;;;;;;5092093;28;20052;-63
2022/12/28 08:55:54;;;;;;;15.52;3.00;;;;;;;;;;5091527;28;20006;-62
2022/12/28 08:58:24;;;;;;;14.10;2.50;;;;;;;;;;5091482;28;20067;-62
2022/12/28 09:00:50;;;;;;;10.32;1.83;;;;;;;;;;5091810;28;20408;-62
2022/12/28 09:03:16;;;;;;;14.32;2.55;;;;;;;;;;5091717;28;20050;-62
2022/12/28 09:05:43;;;;;;;11.05;1.55;;;;;;;;;;5091485;28;20058;-62
2022/12/28 09:08:09;;;;;;;12.02;2.15;;;;;;;;;;5091491;28;20511;-62
2022/12/28 09:10:36;;;;;;;10.55;2.25;;;;;;;;;;5091654;28;20403;-62
2022/12/28 09:13:02;;;;;;;11.90;1.67;;;;;;;;;;5091474;28;20044;-62
2022/12/28 09:15:28;;;;;;;11.38;2.08;;;;;;;;;;5091505;28;20055;-62
2022/12/28 09:17:55;;;;;;;13.75;1.85;;;;;;;;;;5091655;28;20054;-62
2022/12/28 09:20:21;;;;;;;9.90;1.52;;;;;;;;;;5091700;28;20070;-62
2022/12/28 09:22:47;;;;;;;9.63;1.55;;;;;;;;;;5091012;28;20084;-62
2022/12/28 09:25:14;;;;;;;16.20;2.08;;;;;;;;;;5091322;28;20055;-62
2022/12/28 09:27:40;;;;;;;8.68;1.60;;;;;;;;;;5091543;28;20048;-62
2022/12/28 09:30:07;;;;;;;10.68;2.33;;;;;;;;;;5091383;28;20048;-62
2022/12/28 09:32:33;;;;;;;10.50;2.13;;;;;;;;;;5091564;28;20125;-62
2022/12/28 09:35:00;;;;;;;8.05;1.83;;;;;;;;;;5091175;28;20051;-62
2022/12/28 09:37:26;;;;;;;8.55;1.70;;;;;;;;;;5091084;28;20056;-63
2022/12/28 09:39:52;;;;;;;9.77;1.80;;;;;;;;;;5091051;28;20052;-62
2022/12/28 09:42:27;;;;;;;10.07;1.67;;;;;;;;;;5091420;28;20480;-62
2022/12/28 09:45:10;;;;;;;7.80;1.85;;;;;;;;;;5091131;28;20087;-62
2022/12/28 09:47:39;;;;;;;10.02;1.77;;;;;;;;;;5091478;28;20055;-62
2022/12/28 09:50:14;;;;;;;5.57;1.10;;;;;;;;;;5091051;28;20539;-62
2022/12/28 09:52:47;;;;;;;10.70;1.85;;;;;;;;;;5090544;28;20044;-63
2022/12/28 09:55:16;;;;;;;9.68;1.63;;;;;;;;;;5090116;28;20147;-62
2022/12/28 09:58:03;;;;;;;12.50;1.70;;;;;;;;;;5093222;28;20117;-62
2022/12/28 10:00:43;;;;;;;9.60;1.58;;;;;;;;;;5094579;28;20407;-63
2022/12/28 10:03:21;;;;;;;17.17;2.03;;;;;;;;;;5094571;28;20052;-63
2022/12/28 10:05:49;;;;;;;8.30;1.50;;;;;;;;;;5094592;28;20127;-63
2022/12/28 10:08:17;;;;;;;13.00;2.08;;;;;;;;;;5094519;28;20052;-63
2022/12/28 10:10:43;;;;;;;11.57;1.90;;;;;;;;;;5094490;28;20048;-63
2022/12/28 10:13:22;;;;;;;8.05;1.58;;;;;;;;;;5094439;28;20051;-63
2022/12/28 10:16:15;;;;;;;7.30;1.13;;;;;;;;;;5094243;28;20044;-63
2022/12/28 10:18:42;;;;;;;10.00;1.65;;;;;;;;;;5093414;28;20125;-63
2022/12/28 10:21:09;;;;;;;12.40;2.35;;;;;;;;;;5094064;28;20044;-63
2022/12/28 10:23:36;;;;;;;9.57;2.03;;;;;;;;;;5094577;28;20044;-63
2022/12/28 10:26:23;;;;;;;8.65;1.70;;;;;;;;;;5107403;28;20292;-63
2022/12/28 10:28:54;;;;;;;12.05;2.03;;;;;;;;;;5094053;28;20091;-63
2022/12/28 10:31:33;;;;;;;14.75;1.73;;;;;;;;;;5094231;28;20131;-63
2022/12/28 10:33:59;;;;;;;8.50;1.25;;;;;;;;;;5094121;28;20683;-63
2022/12/28 10:36:30;;;;;;;6.43;1.50;;;;;;;;;;5093745;28;20079;-63
2022/12/28 10:38:57;;;;;;;5.15;0.82;;;;;;;;;;5094195;28;20101;-63
2022/12/28 10:41:31;;;;;;;11.75;1.60;;;;;;;;;;5094041;28;20143;-63
2022/12/28 10:43:57;;;;;;;9.10;1.60;;;;;;;;;;5093833;28;20506;-63
2022/12/28 10:46:55;;;;;;;9.52;1.23;;;;;;;;;;5093832;28;20473;-63
2022/12/28 10:49:22;;;;;;;9.55;1.75;;;;;;;;;;5093970;28;20446;-63
2022/12/28 10:52:17;;;;;;;8.07;1.20;;;;;;;;;;5093916;28;20086;-63
2022/12/28 10:54:43;;;;;;;5.05;1.13;;;;;;;;;;5093724;28;20054;-63
2022/12/28 10:57:17;;;;;;;5.07;0.95;;;;;;;;;;5093394;28;20044;-63
2022/12/28 10:59:45;;;;;;;6.85;1.25;;;;;;;;;;5093696;28;20476;-64
2022/12/28 11:02:20;;;;;;;9.07;1.05;;;;;;;;;;5092428;28;20124;-64
2022/12/28 11:04:57;;;;;;;3.75;0.90;;;;;;;;;;5093569;28;20070;-63
2022/12/28 11:07:28;;;;;;;4.10;0.90;;;;;;;;;;5092993;28;20058;-63
2022/12/28 11:10:12;;;;;;;3.72;0.60;;;;;;;;;;5093308;28;20416;-63
2022/12/28 11:12:44;;;;;;;2.83;0.40;;;;;;;;;;5093220;28;20044;-63
2022/12/28 11:15:15;;;;;;;4.63;0.85;;;;;;;;;;5093490;28;20410;-62
2022/12/28 11:17:42;;;;;;;3.67;0.90;;;;;;;;;;5093008;28;20044;-63
2022/12/28 11:20:18;;;;;;;6.50;0.85;;;;;;;;;;5093377;28;20055;-63
2022/12/28 11:22:45;;;;;;;5.72;0.90;;;;;;;;;;5092792;28;20561;-63
2022/12/28 11:25:18;;;;;;;3.40;0.50;;;;;;;;;;5093294;28;20118;-63
2022/12/28 11:27:45;;;;;;;7.20;1.02;;;;;;;;;;5093029;28;20138;-63
2022/12/28 11:30:14;;;;;;;2.90;0.50;;;;;;;;;;5092943;28;20040;-63
2022/12/28 11:32:49;;;;;;;2.50;0.40;;;;;;;;;;5093138;28;20134;-65
2022/12/28 11:35:17;;;;;;;3.10;0.50;;;;;;;;;;5092831;28;20058;-65
2022/12/28 11:38:12;;;;;;;6.20;0.60;;;;;;;;;;5092755;28;20060;-62
2022/12/28 11:40:42;;;;;;;4.22;0.50;;;;;;;;;;5079692;28;20047;-67
2022/12/28 11:43:27;;;;;;;3.10;0.30;;;;;;;;;;5092880;28;20093;-65
2022/12/28 11:45:54;;;;;;;3.90;0.40;;;;;;;;;;5092681;28;20060;-62
2022/12/28 11:48:37;;;;;;;2.05;0.32;;;;;;;;;;5092870;28;20411;-63
2022/12/28 11:51:04;;;;;;;2.92;0.82;;;;;;;;;;5092578;28;20533;-70
2022/12/28 11:53:30;;;;;;;2.33;0.50;;;;;;;;;;5092756;28;20134;-69
2022/12/28 11:55:57;;;;;;;2.17;0.77;;;;;;;;;;5092731;28;20509;-68
2022/12/28 11:58:29;;;;;;;4.82;1.77;;;;;;;;;;5092238;28;20054;-67
2022/12/28 12:00:58;;;;;;;0.00;0.00;;;;;;;;;;5092377;28;20052;-67
2022/12/28 12:03:43;;;;;;;0.00;0.00;;;;;;;;;;5107980;28;20643;-64
2022/12/28 12:06:10;;;;;;;8.20;1.67;;;;;;;;;;5092205;28;20097;-65
2022/12/28 12:08:37;;;;;;;0.00;0.00;;;;;;;;;;5092169;28;20052;-65
2022/12/28 12:11:22;;;;;;;3.63;0.90;;;;;;;;;;5092391;28;20062;-73
2022/12/28 12:13:50;;;;;;;3.67;1.02;;;;;;;;;;5092101;28;20496;-72
2022/12/28 12:16:28;;;;;;;3.00;1.52;;;;;;;;;;5092312;28;20138;-72
2022/12/28 12:18:56;;;;;;;3.25;0.82;;;;;;;;;;5091863;28;20136;-72
2022/12/28 12:21:30;;;;;;;2.25;1.10;;;;;;;;;;5091398;28;20079;-72
2022/12/28 12:24:03;;;;;;;0.00;0.00;;;;;;;;;;5092044;28;20067;-74
2022/12/28 12:26:36;;;;;;;0.00;0.00;;;;;;;;;;5091902;28;20050;-70
2022/12/28 12:29:12;;;;;;;0.03;0.03;;;;;;;;;;5092270;28;20047;-71
2022/12/28 12:31:42;;;;;;;0.60;0.60;;;;;;;;;;5107809;28;20144;-71
2022/12/28 12:34:14;;;;;;;0.00;0.00;;;;;;;;;;5092182;28;20051;-75
2022/12/28 12:37:03;;;;;;;0.10;0.10;;;;;;;;;;5091859;28;20093;-75
2022/12/28 12:39:48;;;;;;;0.00;0.00;;;;;;;;;;5091783;28;20102;-75
2022/12/28 12:42:21;;;;;;;0.10;0.10;;;;;;;;;;5091763;28;20127;-76
2022/12/28 12:44:56;;;;;;;0.00;0.00;;;;;;;;;;5092021;28;20137;-74
2022/12/28 12:47:25;;;;;;;0.00;0.00;;;;;;;;;;5091959;28;20044;-76
2022/12/28 12:50:14;;;;;;;0.00;0.00;;;;;;;;;;5091598;28;20147;-75
2022/12/28 12:52:49;;;;;;;0.00;0.00;;;;;;;;;;5053260;28;20055;-75
2022/12/28 12:55:35;;;;;;;2.28;2.17;;;;;;;;;;5091781;28;20051;-75
2022/12/28 12:58:11;;;;;;;0.00;0.00;;;;;;;;;;5091999;28;20468;-76
2022/12/28 13:00:46;;;;;;;10.10;3.10;;;;;;;;;;5091571;28;20036;-75
2022/12/28 13:03:40;;;;;;;9.85;3.10;;;;;;;;;;5091670;28;20044;-75
2022/12/28 13:06:07;;;;;;;8.25;3.03;;;;;;;;;;5088619;28;20135;-76
2022/12/28 13:08:39;;;;;;;7.75;2.17;;;;;;;;;;5091412;28;20510;-76
2022/12/28 13:11:10;;;;;;;6.35;2.50;;;;;;;;;;5091679;28;20072;-75
2022/12/28 13:13:38;;;;;;;9.75;2.25;;;;;;;;;;5091555;28;20048;-75
2022/12/28 13:16:09;;;;;;;5.90;1.88;;;;;;;;;;5091364;28;20492;-75
2022/12/28 13:18:35;;;;;;;7.47;2.20;;;;;;;;;;5091702;28;20058;-75
2022/12/28 13:21:16;;;;;;;6.57;1.60;;;;;;;;;;5091081;28;20572;-74
2022/12/28 13:23:43;;;;;;;7.22;2.15;;;;;;;;;;5091617;28;20044;-74
2022/12/28 13:26:10;;;;;;;6.32;1.67;;;;;;;;;;5091906;28;20091;-73
2022/12/28 13:28:42;;;;;;;6.38;1.30;;;;;;;;;;5091225;28;20504;-73
2022/12/28 13:31:16;;;;;;;11.02;1.73;;;;;;;;;;5092503;28;20048;-73
2022/12/28 13:33:53;;;;;;;2.72;0.95;;;;;;;;;;5095493;28;20449;-72
2022/12/28 13:36:20;;;;;;;5.05;1.05;;;;;;;;;;5095409;28;20138;-72
2022/12/28 13:38:46;;;;;;;5.38;1.65;;;;;;;;;;5095437;28;20403;-72
2022/12/28 13:41:18;;;;;;;6.50;1.65;;;;;;;;;;5094818;28;20587;-73
2022/12/28 13:44:08;;;;;;;4.78;1.20;;;;;;;;;;5089192;28;20048;-74
2022/12/28 13:46:36;;;;;;;5.97;1.63;;;;;;;;;;5093083;28;20064;-74
2022/12/28 13:49:02;;;;;;;;;;;;;;;;;;5094969;28;20066;-76
2022/12/28 13:51:28;;;;;;;0.00;0.00;;;;;;;;;;5094619;28;20006;-76
2022/12/28 13:53:57;;;;;;;0.00;0.00;;;;;;;;;;5094050;28;20070;-74
2022/12/28 13:56:25;;;;;;;0.00;0.00;;;;;;;;;;5094106;28;20055;-73
2022/12/28 13:58:54;;;;;;;0.00;0.00;;;;;;;;;;5094449;28;20085;-74
2022/12/28 14:01:22;;;;;;;0.00;0.00;;;;;;;;;;5092358;28;20043;-73
2022/12/28 14:03:48;;;;;;;2.15;1.23;;;;;;;;;;5094243;28;20047;-73
2022/12/28 14:06:16;;;;;;;0.10;0.10;;;;;;;;;;5093856;28;20575;-74
2022/12/28 14:08:43;;;;;;;0.65;0.65;;;;;;;;;;5093785;28;20478;-74
2022/12/28 14:11:10;;;;;;;0.00;0.00;;;;;;;;;;5094136;28;20052;-69
2022/12/28 14:13:37;;;;;;;7.40;1.60;;;;;;;;;;5094033;28;20044;-70
2022/12/28 14:16:04;;;;;;;11.73;3.28;;;;;;;;;;5093655;28;20674;-69
2022/12/28 14:18:32;;;;;;;6.50;1.90;;;;;;;;;;5094028;28;20056;-69
2022/12/28 14:20:59;;;;;;;7.38;3.08;;;;;;;;;;5092436;28;20044;-70
2022/12/28 14:23:30;;;;;;;7.35;2.90;;;;;;;;;;5093301;28;20559;-70
2022/12/28 14:25:58;;;;;;;4.10;1.92;;;;;;;;;;5093947;28;20075;-70
2022/12/28 14:28:29;;;;;;;11.15;4.60;;;;;;;;;;5092256;28;20048;-71
2022/12/28 14:30:55;;;;;;;12.18;2.85;;;;;;;;;;5093876;28;20175;-70
2022/12/28 14:33:24;;;;;;;10.85;3.35;;;;;;;;;;5093454;28;20137;-72
2022/12/28 14:35:52;;;;;;;11.38;2.42;;;;;;;;;;5093200;28;20548;-71
2022/12/28 14:38:20;;;;;;;15.82;2.97;;;;;;;;;;5093448;28;20075;-72
2022/12/28 14:40:53;;;;;;;3.33;1.65;;;;;;;;;;5093302;28;20115;-68
2022/12/28 14:43:30;;;;;;;0.00;0.00;;;;;;;;;;5092610;28;20540;-69
2022/12/28 14:45:57;;;;;;;0.00;0.00;;;;;;;;;;5093411;28;20154;-69
2022/12/28 14:48:39;;;;;;;0.28;0.28;;;;;;;;;;5092023;28;20044;-69
2022/12/28 14:51:15;;;;;;;0.00;0.00;;;;;;;;;;5093392;28;20430;-69
2022/12/28 14:53:43;;;;;;;0.00;0.00;;;;;;;;;;5092974;28;20048;-69
2022/12/28 14:56:10;;;;;;;0.00;0.00;;;;;;;;;;5093310;28;20341;-70
2022/12/28 14:58:39;;;;;;;0.00;0.00;;;;;;;;;;5093106;28;20052;-70
2022/12/28 15:01:08;;;;;;;0.00;0.00;;;;;;;;;;5090961;28;20061;-70
2022/12/28 15:03:55;;;;;;;0.40;0.40;;;;;;;;;;5092945;28;20052;-70
2022/12/28 15:06:25;;;;;;;0.20;0.20;;;;;;;;;;5092096;28;20404;-71
2022/12/28 15:08:52;;;;;;;0.52;0.52;;;;;;;;;;5093258;28;20405;-77
2022/12/28 15:11:19;;;;;;;0.00;0.00;;;;;;;;;;5087361;28;20296;-74
2022/12/28 15:13:46;;;;;;;0.00;0.00;;;;;;;;;;5092988;28;20051;-75
2022/12/28 15:16:14;;;;;;;0.15;0.15;;;;;;;;;;5092671;28;20058;-75
2022/12/28 15:18:45;;;;;;;0.70;0.43;;;;;;;;;;5092264;28;20110;-74
2022/12/28 15:21:16;;;;;;;1.95;1.85;;;;;;;;;;5091939;28;20048;-72
2022/12/28 15:23:42;;;;;;;0.00;0.00;;;;;;;;;;5092191;28;20450;-72
2022/12/28 15:26:10;;;;;;;0.00;0.00;;;;;;;;;;5091035;28;20044;-70